sensor_id;sensor_type;location;lat;lon;timestamp;pressure;altitude;pressure_sealevel;temperature;humidity
23303;BME280;11820;48.738;9.092;2022-11-15T00:01:41;96088.63;;;9.52;nan
23303;BME280;11820;48.738;9.092;2022-11-15T00:04:06;96091.97;;;9.53;nan
23303;BME280;11820;48.738;9.092;2022-11-15T00:06:32;96086.81;;;9.53;nan
23303;BME280;11820;48.738;9.092;2022-11-15T00:08:58;96081.91;;;9.58;nan
23303;BME280;11820;48.738;9.092;2022-11-15T00:11:23;96078.94;;;9.61;nan
23303;BME280;11820;48.738;9.092;2022-11-15T00:13:48;96070.81;;;9.63;nan
23303;BME280;11820;48.738;9.092;2022-11-15T00:16:14;96072.78;;;9.62;nan
23303;BME280;11820;48.738;9.092;2022-11-15T00:18:40;96062.66;;;9.66;nan
23303;BME280;11820;48.738;9.092;2022-11-15T00:21:08;96066.03;;;9.67;nan
23303;BME280;11820;48.738;9.092;2022-11-15T00:23:34;96064.25;;;9.67;nan
23303;BME280;11820;48.738;9.092;2022-11-15T00:25:59;96062.47;;;9.68;nan
23303;BME280;11820;48.738;9.092;2022-11-15T00:28:25;96061.28;;;9.70;nan
23303;BME280;11820;48.738;9.092;2022-11-15T00:30:50;96056.94;;;9.71;nan
23303;BME280;11820;48.738;9.092;2022-11-15T00:33:16;96055.75;;;9.73;nan
23303;BME280;11820;48.738;9.092;2022-11-15T00:35:41;96059.31;;;9.72;nan
23303;BME280;11820;48.738;9.092;2022-11-15T00:38:07;96056.72;;;9.72;nan
23303;BME280;11820;48.738;9.092;2022-11-15T00:40:32;96050.78;;;9.72;nan
23303;BME280;11820;48.738;9.092;2022-11-15T00:42:57;96049.19;;;9.71;nan
23303;BME280;11820;48.738;9.092;2022-11-15T00:45:23;96045.19;;;9.68;nan
23303;BME280;11820;48.738;9.092;2022-11-15T00:47:49;96039.84;;;9.70;nan
23303;BME280;11820;48.738;9.092;2022-11-15T00:50:15;96036.69;;;9.74;nan
23303;BME280;11820;48.738;9.092;2022-11-15T00:52:40;96037.66;;;9.73;nan
23303;BME280;11820;48.738;9.092;2022-11-15T00:55:06;96038.88;;;9.77;nan
23303;BME280;11820;48.738;9.092;2022-11-15T00:57:31;96033.31;;;9.80;nan
23303;BME280;11820;48.738;9.092;2022-11-15T00:59:57;96032.94;;;9.83;nan
23303;BME280;11820;48.738;9.092;2022-11-15T01:02:22;96034.53;;;9.84;nan
23303;BME280;11820;48.738;9.092;2022-11-15T01:04:47;96030.56;;;9.95;nan
23303;BME280;11820;48.738;9.092;2022-11-15T01:07:13;96019.47;;;9.94;nan
23303;BME280;11820;48.738;9.092;2022-11-15T01:09:38;96029.78;;;9.94;nan
23303;BME280;11820;48.738;9.092;2022-11-15T01:12:04;96029.78;;;9.94;nan
23303;BME280;11820;48.738;9.092;2022-11-15T01:14:29;96019.47;;;9.94;nan
23303;BME280;11820;48.738;9.092;2022-11-15T01:16:54;96019.06;;;9.97;nan
23303;BME280;11820;48.738;9.092;2022-11-15T01:19:20;96014.88;;;9.96;nan
23303;BME280;11820;48.738;9.092;2022-11-15T01:21:48;96010.72;;;9.95;nan
23303;BME280;11820;48.738;9.092;2022-11-15T01:24:14;96015.88;;;9.95;nan
23303;BME280;11820;48.738;9.092;2022-11-15T01:26:39;96015.69;;;9.90;nan
23303;BME280;11820;48.738;9.092;2022-11-15T01:29:05;96016.66;;;9.89;nan
23303;BME280;11820;48.738;9.092;2022-11-15T01:31:30;96024.41;;;9.89;nan
23303;BME280;11820;48.738;9.092;2022-11-15T01:33:55;96015.47;;;9.85;nan
23303;BME280;11820;48.738;9.092;2022-11-15T01:36:22;96014.25;;;9.81;nan
23303;BME280;11820;48.738;9.092;2022-11-15T01:38:53;96016.22;;;9.79;nan
23303;BME280;11820;48.738;9.092;2022-11-15T01:41:22;96016.81;;;9.81;nan
23303;BME280;11820;48.738;9.092;2022-11-15T01:43:56;96014.63;;;9.78;nan
23303;BME280;11820;48.738;9.092;2022-11-15T01:46:33;95997.75;;;9.82;nan
23303;BME280;11820;48.738;9.092;2022-11-15T01:49:03;96006.72;;;9.80;nan
23303;BME280;11820;48.738;9.092;2022-11-15T01:51:32;95995.56;;;9.79;nan
23303;BME280;11820;48.738;9.092;2022-11-15T01:54:02;96002.13;;;9.75;nan
23303;BME280;11820;48.738;9.092;2022-11-15T01:56:32;95999.53;;;9.75;nan
23303;BME280;11820;48.738;9.092;2022-11-15T01:59:00;96001.72;;;9.72;nan
23303;BME280;11820;48.738;9.092;2022-11-15T02:01:28;96007.06;;;9.70;nan
23303;BME280;11820;48.738;9.092;2022-11-15T02:03:58;96002.91;;;9.69;nan
23303;BME280;11820;48.738;9.092;2022-11-15T02:06:24;96002.31;;;9.67;nan
23303;BME280;11820;48.738;9.092;2022-11-15T02:08:50;95992.16;;;9.66;nan
23303;BME280;11820;48.738;9.092;2022-11-15T02:11:16;95998.31;;;9.65;nan
23303;BME280;11820;48.738;9.092;2022-11-15T02:13:42;95994.34;;;9.63;nan
23303;BME280;11820;48.738;9.092;2022-11-15T02:27:21;95983.44;;;9.61;nan
23303;BME280;11820;48.738;9.092;2022-11-15T02:30:17;95972.88;;;9.62;nan
23303;BME280;11820;48.738;9.092;2022-11-15T02:32:47;95968.72;;;9.61;nan
23303;BME280;11820;48.738;9.092;2022-11-15T02:38:12;95963.34;;;9.56;nan
23303;BME280;11820;48.738;9.092;2022-11-15T02:40:56;95969.69;;;9.54;nan
23303;BME280;11820;48.738;9.092;2022-11-15T02:43:47;95961.34;;;9.52;nan
23303;BME280;11820;48.738;9.092;2022-11-15T02:49:20;95966.47;;;9.39;nan
23303;BME280;11820;48.738;9.092;2022-11-15T02:51:47;95959.88;;;9.30;nan
23303;BME280;11820;48.738;9.092;2022-11-15T02:54:19;95953.94;;;9.29;nan
23303;BME280;11820;48.738;9.092;2022-11-15T02:56:45;95952.31;;;9.22;nan
23303;BME280;11820;48.738;9.092;2022-11-15T03:02:18;95949.31;;;9.12;nan
23303;BME280;11820;48.738;9.092;2022-11-15T03:04:55;95944.09;;;9.05;nan
23303;BME280;11820;48.738;9.092;2022-11-15T03:07:30;95944.09;;;9.05;nan
23303;BME280;11820;48.738;9.092;2022-11-15T03:10:05;95937.53;;;9.03;nan
23303;BME280;11820;48.738;9.092;2022-11-15T03:15:28;95937.72;;;8.95;nan
23303;BME280;11820;48.738;9.092;2022-11-15T03:18:05;95935.34;;;9.00;nan
23303;BME280;11820;48.738;9.092;2022-11-15T03:20:34;95928.59;;;8.99;nan
23303;BME280;11820;48.738;9.092;2022-11-15T03:23:05;95931.19;;;8.99;nan
23303;BME280;11820;48.738;9.092;2022-11-15T03:25:34;95928.63;;;9.05;nan
23303;BME280;11820;48.738;9.092;2022-11-15T03:28:04;95921.88;;;9.04;nan
23303;BME280;11820;48.738;9.092;2022-11-15T03:30:32;95921.47;;;9.01;nan
23303;BME280;11820;48.738;9.092;2022-11-15T03:33:00;95917.88;;;8.95;nan
23303;BME280;11820;48.738;9.092;2022-11-15T03:35:31;95910.94;;;8.96;nan
23303;BME280;11820;48.738;9.092;2022-11-15T03:38:23;95906.50;;;8.83;nan
23303;BME280;11820;48.738;9.092;2022-11-15T03:40:57;95906.91;;;8.80;nan
23303;BME280;11820;48.738;9.092;2022-11-15T03:43:48;95913.09;;;8.86;nan
23303;BME280;11820;48.738;9.092;2022-11-15T03:46:27;95913.50;;;8.96;nan
23303;BME280;11820;48.738;9.092;2022-11-15T03:49:05;95915.53;;;9.00;nan
23303;BME280;11820;48.738;9.092;2022-11-15T03:51:32;95908.97;;;8.98;nan
23303;BME280;11820;48.738;9.092;2022-11-15T03:53:57;95903.81;;;8.98;nan
23303;BME280;11820;48.738;9.092;2022-11-15T03:56:23;95907.00;;;9.06;nan
23303;BME280;11820;48.738;9.092;2022-11-15T03:58:48;95903.03;;;9.04;nan
23303;BME280;11820;48.738;9.092;2022-11-15T04:01:14;95907.97;;;8.99;nan
23303;BME280;11820;48.738;9.092;2022-11-15T04:03:39;95907.59;;;9.02;nan
23303;BME280;11820;48.738;9.092;2022-11-15T04:06:04;95904.22;;;9.01;nan
23303;BME280;11820;48.738;9.092;2022-11-15T04:08:30;95903.22;;;9.02;nan
23303;BME280;11820;48.738;9.092;2022-11-15T04:10:55;95896.28;;;9.03;nan
23303;BME280;11820;48.738;9.092;2022-11-15T04:13:20;95902.03;;;9.05;nan
23303;BME280;11820;48.738;9.092;2022-11-15T04:15:45;95900.44;;;8.97;nan
23303;BME280;11820;48.738;9.092;2022-11-15T04:18:11;95899.63;;;8.97;nan
23303;BME280;11820;48.738;9.092;2022-11-15T04:20:36;95899.25;;;8.93;nan
23303;BME280;11820;48.738;9.092;2022-11-15T04:23:22;95900.56;;;8.83;nan
23303;BME280;11820;48.738;9.092;2022-11-15T04:26:16;95904.28;;;8.74;nan
23303;BME280;11820;48.738;9.092;2022-11-15T04:28:42;95903.13;;;8.76;nan
23303;BME280;11820;48.738;9.092;2022-11-15T04:31:26;95893.84;;;8.82;nan
23303;BME280;11820;48.738;9.092;2022-11-15T04:33:52;95896.75;;;8.79;nan
23303;BME280;11820;48.738;9.092;2022-11-15T04:36:18;95886.44;;;8.79;nan
23303;BME280;11820;48.738;9.092;2022-11-15T04:39:02;95888.03;;;8.80;nan
23303;BME280;11820;48.738;9.092;2022-11-15T04:41:27;95877.94;;;8.78;nan
23303;BME280;11820;48.738;9.092;2022-11-15T04:43:54;95879.66;;;8.65;nan
23303;BME280;11820;48.738;9.092;2022-11-15T04:46:19;95880.88;;;8.69;nan
23303;BME280;11820;48.738;9.092;2022-11-15T04:48:45;95876.13;;;8.72;nan
23303;BME280;11820;48.738;9.092;2022-11-15T04:51:10;95879.09;;;8.76;nan
23303;BME280;11820;48.738;9.092;2022-11-15T04:53:36;95882.63;;;8.62;nan
23303;BME280;11820;48.738;9.092;2022-11-15T04:56:01;95877.25;;;8.57;nan
23303;BME280;11820;48.738;9.092;2022-11-15T04:58:26;95875.25;;;8.52;nan
23303;BME280;11820;48.738;9.092;2022-11-15T05:00:51;95875.41;;;8.51;nan
23303;BME280;11820;48.738;9.092;2022-11-15T05:03:17;95872.44;;;8.54;nan
23303;BME280;11820;48.738;9.092;2022-11-15T05:06:01;95864.53;;;8.55;nan
23303;BME280;11820;48.738;9.092;2022-11-15T05:08:27;95861.97;;;8.55;nan
23303;BME280;11820;48.738;9.092;2022-11-15T05:10:52;95858.59;;;8.55;nan
23303;BME280;11820;48.738;9.092;2022-11-15T05:13:18;95847.06;;;8.51;nan
23303;BME280;11820;48.738;9.092;2022-11-15T05:15:43;95859.13;;;8.44;nan
23303;BME280;11820;48.738;9.092;2022-11-15T05:18:08;95853.41;;;8.48;nan
23303;BME280;11820;48.738;9.092;2022-11-15T05:20:34;95856.25;;;8.60;nan
23303;BME280;11820;48.738;9.092;2022-11-15T05:22:59;95859.66;;;8.67;nan
23303;BME280;11820;48.738;9.092;2022-11-15T05:25:25;95857.50;;;8.70;nan
23303;BME280;11820;48.738;9.092;2022-11-15T05:27:51;95857.88;;;8.74;nan
23303;BME280;11820;48.738;9.092;2022-11-15T05:30:16;95858.69;;;8.74;nan
23303;BME280;11820;48.738;9.092;2022-11-15T05:32:42;95851.16;;;8.73;nan
23303;BME280;11820;48.738;9.092;2022-11-15T05:35:12;95852.72;;;8.74;nan
23303;BME280;11820;48.738;9.092;2022-11-15T05:37:40;95850.75;;;8.76;nan
23303;BME280;11820;48.738;9.092;2022-11-15T05:40:06;95845.59;;;8.76;nan
23303;BME280;11820;48.738;9.092;2022-11-15T05:42:31;95843.84;;;8.76;nan
23303;BME280;11820;48.738;9.092;2022-11-15T05:44:58;95834.91;;;8.79;nan
23303;BME280;11820;48.738;9.092;2022-11-15T05:47:27;95840.44;;;8.76;nan
23303;BME280;11820;48.738;9.092;2022-11-15T05:49:54;95846.00;;;8.73;nan
23303;BME280;11820;48.738;9.092;2022-11-15T05:52:24;95839.03;;;8.67;nan
23303;BME280;11820;48.738;9.092;2022-11-15T05:54:50;95836.44;;;8.67;nan
23303;BME280;11820;48.738;9.092;2022-11-15T05:57:16;95841.59;;;8.67;nan
23303;BME280;11820;48.738;9.092;2022-11-15T05:59:42;95837.22;;;8.61;nan
23303;BME280;11820;48.738;9.092;2022-11-15T06:02:09;95837.22;;;8.61;nan
23303;BME280;11820;48.738;9.092;2022-11-15T06:04:35;95842.00;;;8.64;nan
23303;BME280;11820;48.738;9.092;2022-11-15T06:07:00;95840.19;;;8.64;nan
23303;BME280;11820;48.738;9.092;2022-11-15T06:09:26;95839.59;;;8.62;nan
23303;BME280;11820;48.738;9.092;2022-11-15T06:11:51;95835.66;;;8.66;nan
23303;BME280;11820;48.738;9.092;2022-11-15T06:14:16;95844.19;;;8.67;nan
23303;BME280;11820;48.738;9.092;2022-11-15T06:16:41;95843.03;;;8.69;nan
23303;BME280;11820;48.738;9.092;2022-11-15T06:19:07;95844.41;;;8.72;nan
23303;BME280;11820;48.738;9.092;2022-11-15T06:21:34;95847.19;;;8.70;nan
23303;BME280;11820;48.738;9.092;2022-11-15T06:23:59;95847.19;;;8.70;nan
23303;BME280;11820;48.738;9.092;2022-11-15T06:26:25;95845.00;;;8.74;nan
23303;BME280;11820;48.738;9.092;2022-11-15T06:28:50;95850.75;;;8.76;nan
23303;BME280;11820;48.738;9.092;2022-11-15T06:31:15;95842.03;;;8.70;nan
23303;BME280;11820;48.738;9.092;2022-11-15T06:33:41;95844.78;;;8.69;nan
23303;BME280;11820;48.738;9.092;2022-11-15T06:36:08;95843.63;;;8.71;nan
23303;BME280;11820;48.738;9.092;2022-11-15T06:38:35;95846.97;;;8.72;nan
23303;BME280;11820;48.738;9.092;2022-11-15T06:41:05;95850.38;;;8.72;nan
23303;BME280;11820;48.738;9.092;2022-11-15T06:43:30;95855.72;;;8.77;nan
23303;BME280;11820;48.738;9.092;2022-11-15T06:45:58;95855.34;;;8.80;nan
23303;BME280;11820;48.738;9.092;2022-11-15T06:48:24;95842.88;;;8.84;nan
23303;BME280;11820;48.738;9.092;2022-11-15T06:50:51;95847.25;;;8.90;nan
23303;BME280;11820;48.738;9.092;2022-11-15T06:53:17;95856.56;;;8.91;nan
23303;BME280;11820;48.738;9.092;2022-11-15T06:55:42;95853.00;;;8.92;nan
23303;BME280;11820;48.738;9.092;2022-11-15T06:58:07;95862.16;;;8.94;nan
23303;BME280;11820;48.738;9.092;2022-11-15T07:00:32;95862.75;;;8.96;nan
23303;BME280;11820;48.738;9.092;2022-11-15T07:03:02;95862.97;;;9.01;nan
23303;BME280;11820;48.738;9.092;2022-11-15T07:05:27;95866.91;;;9.04;nan
23303;BME280;11820;48.738;9.092;2022-11-15T07:07:54;95860.38;;;9.01;nan
23303;BME280;11820;48.738;9.092;2022-11-15T07:10:20;95861.41;;;9.07;nan
23303;BME280;11820;48.738;9.092;2022-11-15T07:12:47;95860.81;;;9.11;nan
23303;BME280;11820;48.738;9.092;2022-11-15T07:15:14;95868.75;;;9.16;nan
23303;BME280;11820;48.738;9.092;2022-11-15T07:17:39;95860.03;;;9.24;nan
23303;BME280;11820;48.738;9.092;2022-11-15T07:20:05;95862.44;;;9.25;nan
23303;BME280;11820;48.738;9.092;2022-11-15T07:22:31;95864.03;;;9.26;nan
23303;BME280;11820;48.738;9.092;2022-11-15T07:24:56;95858.66;;;9.28;nan
23303;BME280;11820;48.738;9.092;2022-11-15T07:27:21;95865.03;;;9.32;nan
23303;BME280;11820;48.738;9.092;2022-11-15T07:29:47;95862.88;;;9.42;nan
23303;BME280;11820;48.738;9.092;2022-11-15T07:32:12;95864.47;;;9.49;nan
23303;BME280;11820;48.738;9.092;2022-11-15T07:34:37;95855.38;;;9.60;nan
23303;BME280;11820;48.738;9.092;2022-11-15T07:37:03;95851.38;;;9.76;nan
23303;BME280;11820;48.738;9.092;2022-11-15T07:39:29;95857.56;;;9.82;nan
23303;BME280;11820;48.738;9.092;2022-11-15T07:41:54;95846.63;;;9.86;nan
23303;BME280;11820;48.738;9.092;2022-11-15T07:44:40;95839.47;;;9.95;nan
23303;BME280;11820;48.738;9.092;2022-11-15T07:47:05;95847.84;;;10.03;nan
23303;BME280;11820;48.738;9.092;2022-11-15T07:49:30;95839.09;;;10.11;nan
23303;BME280;11820;48.738;9.092;2022-11-15T07:51:56;95838.50;;;10.15;nan
23303;BME280;11820;48.738;9.092;2022-11-15T07:54:21;95841.84;;;10.16;nan
23303;BME280;11820;48.738;9.092;2022-11-15T07:56:46;95840.25;;;10.21;nan
23303;BME280;11820;48.738;9.092;2022-11-15T07:59:12;95837.06;;;10.32;nan
23303;BME280;11820;48.738;9.092;2022-11-15T08:01:37;95839.84;;;10.37;nan
23303;BME280;11820;48.738;9.092;2022-11-15T08:04:02;95836.69;;;10.35;nan
23303;BME280;11820;48.738;9.092;2022-11-15T08:06:28;95830.88;;;10.33;nan
23303;BME280;11820;48.738;9.092;2022-11-15T08:08:53;95829.53;;;10.31;nan
23303;BME280;11820;48.738;9.092;2022-11-15T08:11:18;95835.69;;;10.30;nan
23303;BME280;11820;48.738;9.092;2022-11-15T08:13:44;95835.47;;;10.31;nan
23303;BME280;11820;48.738;9.092;2022-11-15T08:16:09;95830.88;;;10.33;nan
23303;BME280;11820;48.738;9.092;2022-11-15T08:18:37;95828.88;;;10.42;nan
23303;BME280;11820;48.738;9.092;2022-11-15T08:21:02;95835.84;;;10.48;nan
23303;BME280;11820;48.738;9.092;2022-11-15T08:23:28;95826.47;;;10.53;nan
23303;BME280;11820;48.738;9.092;2022-11-15T08:25:59;95824.25;;;10.63;nan
23303;BME280;11820;48.738;9.092;2022-11-15T08:28:24;95825.81;;;10.71;nan
23303;BME280;11820;48.738;9.092;2022-11-15T08:30:49;95816.66;;;10.75;nan
23303;BME280;11820;48.738;9.092;2022-11-15T08:33:15;95817.81;;;10.85;nan
23303;BME280;11820;48.738;9.092;2022-11-15T08:35:41;95816.41;;;10.89;nan
23303;BME280;11820;48.738;9.092;2022-11-15T08:38:08;95818.50;;;11.05;nan
23303;BME280;11820;48.738;9.092;2022-11-15T08:40:33;95812.03;;;11.21;nan
23303;BME280;11820;48.738;9.092;2022-11-15T08:42:58;95811.56;;;11.36;nan
23303;BME280;11820;48.738;9.092;2022-11-15T08:45:27;95811.47;;;11.49;nan
23303;BME280;11820;48.738;9.092;2022-11-15T08:47:52;95803.44;;;11.64;nan
23303;BME280;11820;48.738;9.092;2022-11-15T08:50:18;95802.31;;;11.78;nan
23303;BME280;11820;48.738;9.092;2022-11-15T08:52:43;95795.16;;;11.98;nan
23303;BME280;11820;48.738;9.092;2022-11-15T08:55:09;95786.63;;;12.15;nan
23303;BME280;11820;48.738;9.092;2022-11-15T08:57:34;95792.03;;;12.32;nan
23303;BME280;11820;48.738;9.092;2022-11-15T08:59:59;95788.38;;;12.39;nan
23303;BME280;11820;48.738;9.092;2022-11-15T09:02:25;95798.44;;;12.47;nan
23303;BME280;11820;48.738;9.092;2022-11-15T09:04:50;95800.41;;;12.52;nan
23303;BME280;11820;48.738;9.092;2022-11-15T09:07:15;95795.47;;;12.62;nan
23303;BME280;11820;48.738;9.092;2022-11-15T09:09:41;95789.84;;;12.83;nan
23303;BME280;11820;48.738;9.092;2022-11-15T09:12:07;95791.31;;;12.97;nan
23303;BME280;11820;48.738;9.092;2022-11-15T09:14:33;95788.91;;;12.95;nan
23303;BME280;11820;48.738;9.092;2022-11-15T09:16:59;95780.16;;;13.07;nan
23303;BME280;11820;48.738;9.092;2022-11-15T09:19:24;95785.69;;;12.99;nan
23303;BME280;11820;48.738;9.092;2022-11-15T09:21:50;95782.44;;;13.04;nan
23303;BME280;11820;48.738;9.092;2022-11-15T09:24:15;95784.25;;;13.15;nan
23303;BME280;11820;48.738;9.092;2022-11-15T09:26:41;95787.22;;;13.18;nan
23303;BME280;11820;48.738;9.092;2022-11-15T09:29:06;95785.47;;;13.42;nan
23303;BME280;11820;48.738;9.092;2022-11-15T09:31:31;95780.78;;;13.62;nan
23303;BME280;11820;48.738;9.092;2022-11-15T09:33:57;95784.19;;;13.85;nan
23303;BME280;11820;48.738;9.092;2022-11-15T09:36:22;95779.34;;;14.00;nan
23303;BME280;11820;48.738;9.092;2022-11-15T09:38:48;95785.78;;;14.09;nan
23303;BME280;11820;48.738;9.092;2022-11-15T09:48:59;95780.81;;;13.85;nan
23303;BME280;11820;48.738;9.092;2022-11-15T09:54:50;95771.41;;;13.72;nan
23303;BME280;11820;48.738;9.092;2022-11-15T09:56:51;95770.13;;;13.63;nan
23303;BME280;11820;48.738;9.092;2022-11-15T10:05:19;95765.91;;;13.39;nan
23303;BME280;11820;48.738;9.092;2022-11-15T10:07:51;95766.03;;;13.33;nan
23303;BME280;11820;48.738;9.092;2022-11-15T10:12:48;95763.84;;;13.18;nan
23303;BME280;11820;48.738;9.092;2022-11-15T10:15:17;95755.81;;;13.20;nan
23303;BME280;11820;48.738;9.092;2022-11-15T10:21:01;95748.72;;;13.15;nan
23303;BME280;11820;48.738;9.092;2022-11-15T10:23:28;95749.13;;;13.12;nan
23303;BME280;11820;48.738;9.092;2022-11-15T10:25:58;95743.81;;;13.07;nan
23303;BME280;11820;48.738;9.092;2022-11-15T10:28:29;95745.66;;;13.07;nan
23303;BME280;11820;48.738;9.092;2022-11-15T10:30:59;95744.50;;;13.03;nan
23303;BME280;11820;48.738;9.092;2022-11-15T10:41:35;95725.09;;;13.05;nan
23303;BME280;11820;48.738;9.092;2022-11-15T10:44:08;95728.69;;;13.04;nan
23303;BME280;11820;48.738;9.092;2022-11-15T10:46:38;95721.56;;;13.00;nan
23303;BME280;11820;48.738;9.092;2022-11-15T10:49:24;95724.84;;;12.96;nan
23303;BME280;11820;48.738;9.092;2022-11-15T10:51:57;95712.31;;;12.93;nan
23303;BME280;11820;48.738;9.092;2022-11-15T10:54:23;95711.72;;;12.91;nan
23303;BME280;11820;48.738;9.092;2022-11-15T10:56:54;95711.56;;;12.86;nan
23303;BME280;11820;48.738;9.092;2022-11-15T10:59:26;95711.56;;;12.86;nan
23303;BME280;11820;48.738;9.092;2022-11-15T11:01:53;95705.22;;;12.82;nan
23303;BME280;11820;48.738;9.092;2022-11-15T11:04:19;95707.25;;;12.80;nan
23303;BME280;11820;48.738;9.092;2022-11-15T11:06:54;95703.66;;;12.81;nan
23303;BME280;11820;48.738;9.092;2022-11-15T11:11:50;95704.53;;;12.93;nan
23303;BME280;11820;48.738;9.092;2022-11-15T11:14:24;95706.31;;;12.92;nan
23303;BME280;11820;48.738;9.092;2022-11-15T11:19:49;95703.19;;;13.01;nan
23303;BME280;11820;48.738;9.092;2022-11-15T11:27:43;95694.63;;;13.12;nan
23303;BME280;11820;48.738;9.092;2022-11-15T11:30:22;95697.81;;;13.14;nan
23303;BME280;11820;48.738;9.092;2022-11-15T11:33:16;95686.19;;;13.17;nan
23303;BME280;11820;48.738;9.092;2022-11-15T11:47:36;95656.06;;;13.50;nan
23303;BME280;11820;48.738;9.092;2022-11-15T11:50:27;95640.13;;;13.58;nan
23303;BME280;11820;48.738;9.092;2022-11-15T11:53:09;95642.50;;;13.71;nan
23303;BME280;11820;48.738;9.092;2022-11-15T11:55:58;95644.09;;;13.72;nan
23303;BME280;11820;48.738;9.092;2022-11-15T11:58:34;95648.25;;;13.73;nan
23303;BME280;11820;48.738;9.092;2022-11-15T12:01:24;95643.63;;;13.87;nan
23303;BME280;11820;48.738;9.092;2022-11-15T12:04:18;95646.78;;;13.89;nan
23303;BME280;11820;48.738;9.092;2022-11-15T12:07:45;95631.41;;;13.87;nan
23303;BME280;11820;48.738;9.092;2022-11-15T12:09:59;95624.50;;;13.81;nan
23303;BME280;11820;48.738;9.092;2022-11-15T12:12:49;95624.31;;;13.71;nan
23303;BME280;11820;48.738;9.092;2022-11-15T12:15:23;95619.03;;;13.66;nan
23303;BME280;11820;48.738;9.092;2022-11-15T12:17:50;95624.66;;;13.63;nan
23303;BME280;11820;48.738;9.092;2022-11-15T12:20:24;95627.13;;;13.58;nan
23303;BME280;11820;48.738;9.092;2022-11-15T12:28:41;95617.78;;;13.34;nan
23303;BME280;11820;48.738;9.092;2022-11-15T12:31:19;95614.63;;;13.32;nan
23303;BME280;11820;48.738;9.092;2022-11-15T12:33:47;95618.69;;;13.28;nan
23303;BME280;11820;48.738;9.092;2022-11-15T12:39:05;95612.56;;;13.23;nan
23303;BME280;11820;48.738;9.092;2022-11-15T12:41:33;95609.22;;;13.22;nan
23303;BME280;11820;48.738;9.092;2022-11-15T12:43:59;95610.44;;;13.20;nan
23303;BME280;11820;48.738;9.092;2022-11-15T12:51:23;95612.16;;;13.14;nan
23303;BME280;11820;48.738;9.092;2022-11-15T13:02:25;95593.72;;;13.04;nan
23303;BME280;11820;48.738;9.092;2022-11-15T13:04:55;95589.66;;;13.08;nan
23303;BME280;11820;48.738;9.092;2022-11-15T13:17:45;95575.56;;;13.04;nan
23303;BME280;11820;48.738;9.092;2022-11-15T13:22:45;95559.41;;;13.02;nan
23303;BME280;11820;48.738;9.092;2022-11-15T13:27:51;95563.69;;;12.97;nan
23303;BME280;11820;48.738;9.092;2022-11-15T13:30:26;95559.75;;;12.95;nan
23303;BME280;11820;48.738;9.092;2022-11-15T13:32:52;95550.41;;;12.94;nan
23303;BME280;11820;48.738;9.092;2022-11-15T13:35:29;95548.22;;;12.91;nan
23303;BME280;11820;48.738;9.092;2022-11-15T13:37:56;95551.03;;;12.89;nan
23303;BME280;11820;48.738;9.092;2022-11-15T13:40:27;95544.94;;;12.84;nan
23303;BME280;11820;48.738;9.092;2022-11-15T13:42:55;95541.88;;;12.87;nan
23303;BME280;11820;48.738;9.092;2022-11-15T13:45:21;95535.69;;;12.88;nan
23303;BME280;11820;48.738;9.092;2022-11-15T13:47:55;95535.13;;;12.86;nan
23303;BME280;11820;48.738;9.092;2022-11-15T13:50:28;95529.34;;;12.84;nan
23303;BME280;11820;48.738;9.092;2022-11-15T13:52:58;95527.47;;;12.79;nan
23303;BME280;11820;48.738;9.092;2022-11-15T13:55:25;95520.91;;;12.77;nan
23303;BME280;11820;48.738;9.092;2022-11-15T13:57:55;95516.94;;;12.74;nan
23303;BME280;11820;48.738;9.092;2022-11-15T14:02:47;95512.00;;;12.73;nan
23303;BME280;11820;48.738;9.092;2022-11-15T14:05:18;95505.69;;;12.69;nan
23303;BME280;11820;48.738;9.092;2022-11-15T14:10:31;95500.50;;;12.69;nan
23303;BME280;11820;48.738;9.092;2022-11-15T14:12:58;95507.47;;;12.68;nan
23303;BME280;11820;48.738;9.092;2022-11-15T14:15:36;95500.25;;;12.70;nan
23303;BME280;11820;48.738;9.092;2022-11-15T14:18:03;95499.94;;;13.01;nan
23303;BME280;11820;48.738;9.092;2022-11-15T14:20:30;95489.56;;;12.90;nan
23303;BME280;11820;48.738;9.092;2022-11-15T14:23:17;95480.06;;;12.84;nan
23303;BME280;11820;48.738;9.092;2022-11-15T14:25:52;95480.06;;;12.84;nan
23303;BME280;11820;48.738;9.092;2022-11-15T14:30:45;95464.75;;;12.82;nan
23303;BME280;11820;48.738;9.092;2022-11-15T14:35:46;95457.41;;;12.79;nan
23303;BME280;11820;48.738;9.092;2022-11-15T14:38:12;95458.06;;;12.75;nan
23303;BME280;11820;48.738;9.092;2022-11-15T14:40:37;95459.88;;;12.74;nan
23303;BME280;11820;48.738;9.092;2022-11-15T14:43:03;95455.94;;;12.72;nan
23303;BME280;11820;48.738;9.092;2022-11-15T14:45:28;95451.78;;;12.71;nan
23303;BME280;11820;48.738;9.092;2022-11-15T14:47:53;95451.22;;;12.69;nan
23303;BME280;11820;48.738;9.092;2022-11-15T14:50:20;95445.66;;;12.65;nan
23303;BME280;11820;48.738;9.092;2022-11-15T14:52:47;95445.31;;;12.62;nan
23303;BME280;11820;48.738;9.092;2022-11-15T14:55:40;95444.44;;;12.56;nan
23303;BME280;11820;48.738;9.092;2022-11-15T14:58:07;95448.25;;;12.54;nan
23303;BME280;11820;48.738;9.092;2022-11-15T15:00:36;95442.72;;;12.50;nan
23303;BME280;11820;48.738;9.092;2022-11-15T15:03:02;95436.97;;;12.48;nan
23303;BME280;11820;48.738;9.092;2022-11-15T15:05:32;95432.25;;;12.45;nan
23303;BME280;11820;48.738;9.092;2022-11-15T15:07:58;95421.56;;;12.42;nan
23303;BME280;11820;48.738;9.092;2022-11-15T15:10:24;95429.78;;;12.39;nan
23303;BME280;11820;48.738;9.092;2022-11-15T15:12:50;95423.00;;;12.38;nan
23303;BME280;11820;48.738;9.092;2022-11-15T15:15:20;95425.03;;;12.36;nan
23303;BME280;11820;48.738;9.092;2022-11-15T15:17:47;95416.69;;;12.34;nan
23303;BME280;11820;48.738;9.092;2022-11-15T15:20:12;95411.94;;;12.31;nan
23303;BME280;11820;48.738;9.092;2022-11-15T15:22:38;95406.66;;;12.26;nan
23303;BME280;11820;48.738;9.092;2022-11-15T15:25:20;95402.13;;;12.21;nan
23303;BME280;11820;48.738;9.092;2022-11-15T15:27:46;95403.59;;;12.17;nan
23303;BME280;11820;48.738;9.092;2022-11-15T15:30:11;95399.88;;;12.13;nan
23303;BME280;11820;48.738;9.092;2022-11-15T15:32:37;95402.13;;;12.10;nan
23303;BME280;11820;48.738;9.092;2022-11-15T15:35:02;95403.13;;;12.09;nan
23303;BME280;11820;48.738;9.092;2022-11-15T15:37:34;95405.59;;;12.04;nan
23303;BME280;11820;48.738;9.092;2022-11-15T15:40:00;95402.44;;;12.02;nan